Kapowsin, Washington
Current Conditions -  °F | °C
As of 2:58 PM on Friday 19 Dec 2014 (Local Time) from KTCM Reporting Station
Scattered Clouds Scattered Clouds  
Wind Chill: 45°   Ceiling: Unl
Heat Index: 50°   Visibility: 10mi
Dew Point: 41°   Wind: 10mph
Humidity: 73%   Direction: 180°S
Pressure: 29.96"   Gusts: NA
Location:  46.99°N, 122.23°W
Report Text: KTCM 192258Z AUTO 18009KT 10SM FEW034 SCT055 SCT080 10/05 A2996 RMK AO2 SLP150 T00980052
Loading
Personal Weather Stations






























Interactive Weather Map New forecast layout! Learn more

10-Day Weather Forecast

Advertisements
Track Severe Weather on mobile